Time;durP1;ratioP1;P1;durP2;ratioP2;P2;SDS_P1;SDS_P2;PMS_P1;PMS_P2;Temp;Humidity;BMP_temperature;BMP_pressure;BME280_temperature;BME280_humidity;BME280_pressure;Samples;Min_cycle;Max_cycle;Signal;HPM_P1;HPM_P2
2023/11/10 00:01:32;;;;;;;;;;;23.20;62.90;;;;;;5001438;28;1308;-67
2023/11/10 00:03:57;;;;;;;;;;;23.20;63.00;;;;;;5002265;28;1616;-68
2023/11/10 00:06:23;;;;;;;;;;;23.10;63.10;;;;;;4999778;28;1902;-67
2023/11/10 00:08:48;;;;;;;;;;;23.00;63.20;;;;;;5002737;28;1484;-67
2023/11/10 00:11:14;;;;;;;;;;;23.00;63.40;;;;;;5004956;28;1399;-67
2023/11/10 00:13:39;;;;;;;;;;;22.90;63.50;;;;;;5002910;28;1490;-67
2023/11/10 00:16:06;;;;;;;;;;;22.90;63.70;;;;;;5003848;28;1264;-67
2023/11/10 00:18:31;;;;;;;;;;;22.80;63.80;;;;;;4999017;28;1340;-67
2023/11/10 00:20:57;;;;;;;;;;;22.80;64.00;;;;;;5001832;28;1281;-67
2023/11/10 00:23:22;;;;;;;;;;;22.70;64.10;;;;;;5001576;28;1402;-67
2023/11/10 00:25:48;;;;;;;;;;;22.70;64.20;;;;;;5002209;28;1446;-67
2023/11/10 00:28:13;;;;;;;;;;;22.60;64.30;;;;;;5002399;28;1906;-67
2023/11/10 00:30:39;;;;;;;;;;;22.60;64.40;;;;;;5001209;28;1427;-67
2023/11/10 00:33:04;;;;;;;;;;;22.60;64.60;;;;;;5000133;28;1348;-67
2023/11/10 00:35:30;;;;;;;;;;;22.50;64.60;;;;;;5005690;28;1369;-67
2023/11/10 00:37:55;;;;;;;;;;;22.50;64.70;;;;;;5001034;28;1303;-68
2023/11/10 00:40:21;;;;;;;;;;;22.50;64.80;;;;;;5002736;28;1220;-67
2023/11/10 00:42:46;;;;;;;;;;;22.50;64.90;;;;;;5001241;28;1284;-67
2023/11/10 00:45:12;;;;;;;;;;;22.40;65.00;;;;;;5002558;28;1212;-67
2023/11/10 00:47:38;;;;;;;;;;;22.40;65.00;;;;;;5000507;28;1938;-67
2023/11/10 00:50:04;;;;;;;;;;;22.40;65.10;;;;;;4999404;28;1521;-67
2023/11/10 00:52:29;;;;;;;;;;;22.40;65.20;;;;;;5003869;28;1485;-67
2023/11/10 00:54:55;;;;;;;;;;;22.30;65.30;;;;;;5002723;28;1325;-67
2023/11/10 00:57:20;;;;;;;;;;;22.30;65.30;;;;;;5001124;28;1458;-67
2023/11/10 00:59:46;;;;;;;;;;;22.30;65.40;;;;;;5001163;28;1292;-66
2023/11/10 01:02:11;;;;;;;;;;;22.30;65.50;;;;;;5001850;28;1352;-66
2023/11/10 01:04:37;;;;;;;;;;;22.20;65.50;;;;;;5004282;28;1350;-67
2023/11/10 01:07:02;;;;;;;;;;;22.20;65.60;;;;;;5002331;28;1906;-66
2023/11/10 01:09:28;;;;;;;;;;;22.20;65.60;;;;;;5003092;28;1244;-66
2023/11/10 01:11:54;;;;;;;;;;;22.20;65.70;;;;;;4998322;28;1425;-67
2023/11/10 01:14:21;;;;;;;;;;;22.20;65.70;;;;;;5000599;28;1255;-67
2023/11/10 01:16:46;;;;;;;;;;;22.10;65.70;;;;;;4999301;28;1180;-66
2023/11/10 01:19:12;;;;;;;;;;;22.10;65.80;;;;;;4999719;28;1469;-66
2023/11/10 01:21:37;;;;;;;;;;;22.10;65.90;;;;;;4998048;28;1260;-67
2023/11/10 01:24:04;;;;;;;;;;;22.10;66.00;;;;;;5001390;28;1305;-67
2023/11/10 01:26:29;;;;;;;;;;;22.10;66.00;;;;;;5017104;28;1906;-67
2023/11/10 01:28:55;;;;;;;;;;;22.00;66.00;;;;;;5006408;28;1237;-67
2023/11/10 01:31:21;;;;;;;;;;;22.00;66.00;;;;;;5001617;28;1389;-66
2023/11/10 01:33:46;;;;;;;;;;;22.00;66.10;;;;;;5004557;28;1478;-67
2023/11/10 01:36:12;;;;;;;;;;;22.00;66.10;;;;;;5004172;28;975;-67
2023/11/10 01:38:37;;;;;;;;;;;22.00;66.10;;;;;;5004891;28;1400;-67
2023/11/10 01:41:03;;;;;;;;;;;21.90;66.10;;;;;;5000134;28;1395;-67
2023/11/10 01:43:29;;;;;;;;;;;21.90;66.20;;;;;;5001959;28;1339;-67
2023/11/10 01:45:55;;;;;;;;;;;21.90;66.20;;;;;;5006991;28;1492;-66
2023/11/10 01:48:20;;;;;;;;;;;21.90;66.30;;;;;;5006856;28;1898;-66
2023/11/10 01:50:46;;;;;;;;;;;21.90;66.30;;;;;;5004624;28;1261;-68
2023/11/10 01:53:11;;;;;;;;;;;21.90;66.40;;;;;;5001418;28;1351;-67
2023/11/10 01:55:37;;;;;;;;;;;21.80;66.30;;;;;;5009195;28;1395;-66
2023/11/10 01:58:03;;;;;;;;;;;21.80;67.10;;;;;;5004928;28;911;-66
2023/11/10 02:00:30;;;;;;;;;;;21.80;66.40;;;;;;5006838;28;1440;-66
2023/11/10 02:03:01;;;;;;;;;;;21.80;66.40;;;;;;4999941;28;1494;-66
2023/11/10 02:05:26;;;;;;;;;;;21.80;66.50;;;;;;5006494;28;1355;-67
2023/11/10 02:07:53;;;;;;;;;;;21.80;66.50;;;;;;5005355;28;1981;-67
2023/11/10 02:10:19;;;;;;;;;;;21.80;66.50;;;;;;5003464;28;1481;-67
2023/11/10 02:12:50;;;;;;;;;;;21.80;66.60;;;;;;5004678;28;1550;-67
2023/11/10 02:15:16;;;;;;;;;;;21.70;66.60;;;;;;5005654;28;1311;-67
2023/11/10 02:17:41;;;;;;;;;;;21.80;66.70;;;;;;5005112;28;1426;-67
2023/11/10 02:20:08;;;;;;;;;;;21.70;66.70;;;;;;5004601;28;1345;-67
2023/11/10 02:22:33;;;;;;;;;;;21.70;66.70;;;;;;5001151;28;1339;-67
2023/11/10 02:24:59;;;;;;;;;;;21.70;66.70;;;;;;5006652;28;1341;-66
2023/11/10 02:27:25;;;;;;;;;;;21.70;66.80;;;;;;5004047;28;1977;-66
2023/11/10 02:29:51;;;;;;;;;;;21.70;66.80;;;;;;5005583;28;1481;-66
2023/11/10 02:32:16;;;;;;;;;;;21.70;66.80;;;;;;5006142;28;1382;-66
2023/11/10 02:34:42;;;;;;;;;;;21.70;66.80;;;;;;5005012;28;1497;-67
2023/11/10 02:37:08;;;;;;;;;;;21.60;66.80;;;;;;5004184;28;1524;-66
2023/11/10 02:39:33;;;;;;;;;;;21.60;66.80;;;;;;5001961;28;1351;-66
2023/11/10 02:41:59;;;;;;;;;;;21.60;66.90;;;;;;5006441;28;1466;-66
2023/11/10 02:44:26;;;;;;;;;;;21.70;66.90;;;;;;5001486;28;1253;-66
2023/11/10 02:46:51;;;;;;;;;;;21.60;66.90;;;;;;5001937;28;1906;-66
2023/11/10 02:49:17;;;;;;;;;;;21.60;66.90;;;;;;5006552;28;1428;-66
2023/11/10 02:51:43;;;;;;;;;;;21.60;67.00;;;;;;5003571;28;1358;-66
2023/11/10 02:54:09;;;;;;;;;;;21.60;67.00;;;;;;5005371;28;1361;-66
2023/11/10 02:56:34;;;;;;;;;;;21.60;67.00;;;;;;5002824;28;1328;-66
2023/11/10 02:59:00;;;;;;;;;;;21.60;67.00;;;;;;5004379;28;1434;-66
2023/11/10 03:01:26;;;;;;;;;;;21.60;67.10;;;;;;5003875;28;1406;-66
2023/11/10 03:03:51;;;;;;;;;;;21.50;67.00;;;;;;5004193;28;971;-66
2023/11/10 03:06:17;;;;;;;;;;;21.50;67.10;;;;;;4998493;28;1975;-66
2023/11/10 03:08:43;;;;;;;;;;;21.50;67.10;;;;;;5004519;28;1370;-66
2023/11/10 03:11:08;;;;;;;;;;;21.50;67.10;;;;;;5004047;28;1312;-66
2023/11/10 03:13:34;;;;;;;;;;;21.50;67.10;;;;;;5004051;28;1475;-66
2023/11/10 03:15:59;;;;;;;;;;;21.50;67.20;;;;;;5004211;28;1261;-66
2023/11/10 03:18:25;;;;;;;;;;;21.50;67.20;;;;;;5001184;28;1218;-65
2023/11/10 03:20:50;;;;;;;;;;;21.50;67.20;;;;;;5004563;28;1178;-67
2023/11/10 03:23:16;;;;;;;;;;;21.50;67.20;;;;;;5003416;28;1476;-66
2023/11/10 03:25:41;;;;;;;;;;;21.50;67.20;;;;;;5001138;28;1407;-67
2023/11/10 03:28:06;;;;;;;;;;;21.50;67.30;;;;;;5007334;28;1955;-67
2023/11/10 03:30:33;;;;;;;;;;;21.50;67.20;;;;;;5002308;28;1504;-67
2023/11/10 03:32:58;;;;;;;;;;;21.50;67.30;;;;;;5004368;28;1493;-67
2023/11/10 03:35:24;;;;;;;;;;;21.50;67.30;;;;;;5003332;28;1297;-67
2023/11/10 03:37:50;;;;;;;;;;;21.50;67.40;;;;;;5002883;28;2488;-66
2023/11/10 03:40:15;;;;;;;;;;;21.50;67.40;;;;;;5000502;28;1358;-66
2023/11/10 03:42:42;;;;;;;;;;;21.50;67.40;;;;;;5001548;28;1395;-66
2023/11/10 03:45:08;;;;;;;;;;;21.50;67.40;;;;;;5000364;28;1361;-66
2023/11/10 03:47:33;;;;;;;;;;;21.50;67.40;;;;;;5004056;28;1991;-66
2023/11/10 03:49:59;;;;;;;;;;;21.40;67.40;;;;;;5001831;28;1313;-66
2023/11/10 03:52:24;;;;;;;;;;;21.40;67.40;;;;;;4999874;28;1491;-67
2023/11/10 03:54:50;;;;;;;;;;;21.40;67.40;;;;;;5001479;28;1224;-66
2023/11/10 03:57:15;;;;;;;;;;;21.40;67.40;;;;;;4999951;28;1254;-66
2023/11/10 03:59:41;;;;;;;;;;;21.40;67.40;;;;;;5002388;28;1360;-66
2023/11/10 04:02:06;;;;;;;;;;;21.40;67.40;;;;;;5004393;28;1480;-66
2023/11/10 04:04:32;;;;;;;;;;;21.40;67.50;;;;;;5003964;28;1386;-66
2023/11/10 04:06:57;;;;;;;;;;;21.40;67.50;;;;;;5003023;28;1989;-66
2023/11/10 04:09:23;;;;;;;;;;;21.40;67.50;;;;;;5003044;28;1127;-66
2023/11/10 04:11:48;;;;;;;;;;;21.40;67.50;;;;;;5001817;28;1436;-66
2023/11/10 04:14:14;;;;;;;;;;;21.40;67.50;;;;;;4998899;28;1492;-66
2023/11/10 04:16:39;;;;;;;;;;;21.40;67.50;;;;;;5001882;28;1042;-66
2023/11/10 04:19:05;;;;;;;;;;;21.40;67.50;;;;;;5003917;28;1208;-66
2023/11/10 04:21:30;;;;;;;;;;;21.40;67.60;;;;;;5004242;28;1292;-65
2023/11/10 04:23:57;;;;;;;;;;;21.40;67.60;;;;;;5000944;28;978;-65
2023/11/10 04:26:22;;;;;;;;;;;21.30;67.50;;;;;;4999521;28;1957;-66
2023/11/10 04:28:48;;;;;;;;;;;21.30;67.60;;;;;;5004460;28;1349;-67
2023/11/10 04:31:14;;;;;;;;;;;21.30;67.50;;;;;;5005431;28;1332;-67
2023/11/10 04:33:39;;;;;;;;;;;21.30;67.60;;;;;;5017392;28;1073;-67
2023/11/10 04:36:06;;;;;;;;;;;21.30;67.60;;;;;;5002908;28;1170;-67
2023/11/10 04:38:32;;;;;;;;;;;21.30;67.60;;;;;;5003444;28;1231;-67
2023/11/10 04:40:58;;;;;;;;;;;21.30;67.60;;;;;;5004625;28;1361;-67
2023/11/10 04:43:23;;;;;;;;;;;21.30;67.60;;;;;;5003075;28;1239;-67
2023/11/10 04:45:49;;;;;;;;;;;21.30;67.70;;;;;;5000339;28;1378;-66
2023/11/10 04:48:14;;;;;;;;;;;21.30;67.70;;;;;;4999970;28;1963;-67
2023/11/10 04:50:40;;;;;;;;;;;21.30;67.70;;;;;;4999383;28;1363;-66
2023/11/10 04:53:06;;;;;;;;;;;21.30;67.70;;;;;;5000978;28;1466;-66
2023/11/10 04:55:32;;;;;;;;;;;21.30;67.70;;;;;;5000345;28;1551;-67
2023/11/10 04:57:57;;;;;;;;;;;21.30;67.70;;;;;;5003174;28;1363;-67
2023/11/10 05:00:26;;;;;;;;;;;21.30;67.70;;;;;;5005852;28;1479;-66
2023/11/10 05:02:53;;;;;;;;;;;21.30;67.70;;;;;;5002888;28;1458;-66
2023/11/10 05:05:19;;;;;;;;;;;21.30;67.80;;;;;;5001290;28;1249;-66
2023/11/10 05:07:44;;;;;;;;;;;21.30;67.80;;;;;;4982775;28;1965;-66
2023/11/10 05:10:10;;;;;;;;;;;21.20;67.70;;;;;;5003426;28;1372;-66
2023/11/10 05:12:36;;;;;;;;;;;21.30;67.80;;;;;;5000899;28;1511;-66
2023/11/10 05:15:05;;;;;;;;;;;21.30;67.80;;;;;;5001465;28;1982;-65
2023/11/10 05:17:34;;;;;;;;;;;21.20;67.80;;;;;;5004635;28;1965;-65
2023/11/10 05:20:03;;;;;;;;;;;21.20;67.80;;;;;;4999685;28;1513;-67
2023/11/10 05:22:29;;;;;;;;;;;21.20;67.80;;;;;;4998608;28;1362;-67
2023/11/10 05:24:55;;;;;;;;;;;21.20;67.80;;;;;;5000606;28;1534;-67
2023/11/10 05:27:21;;;;;;;;;;;21.20;67.80;;;;;;5000068;28;1935;-67
2023/11/10 05:29:46;;;;;;;;;;;21.20;67.80;;;;;;5001258;28;1515;-67
2023/11/10 05:32:12;;;;;;;;;;;21.20;67.80;;;;;;5001203;28;1386;-66
2023/11/10 05:34:37;;;;;;;;;;;21.20;67.80;;;;;;5000357;28;1681;-67
2023/11/10 05:37:03;;;;;;;;;;;21.20;67.80;;;;;;5000061;28;1469;-67
2023/11/10 05:39:29;;;;;;;;;;;21.20;67.90;;;;;;5000769;28;1138;-67
2023/11/10 05:41:54;;;;;;;;;;;21.20;67.90;;;;;;5000225;28;1392;-67
2023/11/10 05:44:20;;;;;;;;;;;21.20;67.90;;;;;;5001118;28;1258;-67
2023/11/10 05:46:45;;;;;;;;;;;21.20;67.90;;;;;;4999321;28;1954;-67
2023/11/10 05:49:11;;;;;;;;;;;21.20;67.90;;;;;;5002826;28;1291;-67
2023/11/10 05:51:36;;;;;;;;;;;21.20;68.00;;;;;;4996153;28;1463;-67
2023/11/10 05:54:02;;;;;;;;;;;21.20;68.00;;;;;;5000970;28;1221;-66
2023/11/10 05:56:27;;;;;;;;;;;21.20;68.00;;;;;;4999077;28;1377;-67
2023/11/10 05:58:53;;;;;;;;;;;21.10;67.90;;;;;;4999789;28;1358;-67
2023/11/10 06:01:22;;;;;;;;;;;21.20;68.00;;;;;;5003362;28;1277;-67
2023/11/10 06:03:47;;;;;;;;;;;21.20;68.00;;;;;;5000192;28;1198;-68
2023/11/10 06:06:13;;;;;;;;;;;21.20;68.10;;;;;;5001401;28;1975;-68
2023/11/10 06:08:38;;;;;;;;;;;21.20;68.00;;;;;;4997509;28;1201;-70
2023/11/10 06:11:04;;;;;;;;;;;21.10;68.00;;;;;;4998613;28;1472;-71
2023/11/10 06:13:31;;;;;;;;;;;21.20;68.00;;;;;;4997049;28;1485;-70
2023/11/10 06:15:56;;;;;;;;;;;21.20;68.00;;;;;;4999648;28;1644;-70
2023/11/10 06:18:22;;;;;;;;;;;21.20;67.90;;;;;;4998168;28;1344;-67
2023/11/10 06:20:47;;;;;;;;;;;21.20;67.80;;;;;;4999616;28;1239;-66
2023/11/10 06:23:13;;;;;;;;;;;21.20;67.80;;;;;;4991788;28;1839;-68
2023/11/10 06:25:38;;;;;;;;;;;21.20;67.70;;;;;;4999135;28;1455;-67
2023/11/10 06:28:04;;;;;;;;;;;21.20;67.60;;;;;;5002087;28;1947;-67
2023/11/10 06:30:29;;;;;;;;;;;21.20;67.50;;;;;;4999109;28;1504;-66
2023/11/10 06:32:55;;;;;;;;;;;21.30;67.50;;;;;;5002068;28;1470;-66
2023/11/10 06:35:20;;;;;;;;;;;21.30;67.40;;;;;;5009272;28;1364;-66
2023/11/10 06:37:46;;;;;;;;;;;21.30;68.10;;;;;;5003703;28;1491;-68
2023/11/10 06:40:12;;;;;;;;;;;21.30;67.20;;;;;;5004583;28;1249;-67
2023/11/10 06:42:37;;;;;;;;;;;21.40;67.30;;;;;;5003811;28;1327;-68
2023/11/10 06:45:03;;;;;;;;;;;21.40;67.20;;;;;;5005920;28;928;-67
2023/11/10 06:47:29;;;;;;;;;;;21.40;67.10;;;;;;5006216;28;1930;-68
2023/11/10 06:49:55;;;;;;;;;;;21.40;67.00;;;;;;5003098;28;1237;-68
2023/11/10 06:52:23;;;;;;;;;;;21.40;67.00;;;;;;5002939;28;1447;-67
2023/11/10 06:54:49;;;;;;;;;;;21.40;66.90;;;;;;5000320;28;1821;-68
2023/11/10 06:57:15;;;;;;;;;;;21.50;66.80;;;;;;5000889;28;1477;-68
2023/11/10 06:59:42;;;;;;;;;;;21.50;66.70;;;;;;5001656;28;1360;-68
2023/11/10 07:02:09;;;;;;;;;;;21.50;66.60;;;;;;5001413;28;1428;-67
2023/11/10 07:04:38;;;;;;;;;;;21.50;66.60;;;;;;5008037;28;1433;-67
2023/11/10 07:07:03;;;;;;;;;;;21.50;66.50;;;;;;5004793;28;1902;-67
2023/11/10 07:09:29;;;;;;;;;;;21.50;66.40;;;;;;5006293;28;1365;-68
2023/11/10 07:11:54;;;;;;;;;;;21.50;66.40;;;;;;5003876;28;1260;-67
2023/11/10 07:14:20;;;;;;;;;;;21.50;66.50;;;;;;5005061;28;1443;-66
2023/11/10 07:16:45;;;;;;;;;;;21.50;66.40;;;;;;5004158;28;1438;-66
2023/11/10 07:19:11;;;;;;;;;;;21.50;66.30;;;;;;5003675;28;1356;-68
2023/11/10 07:21:37;;;;;;;;;;;21.50;66.30;;;;;;5002935;28;1574;-67
2023/11/10 07:24:02;;;;;;;;;;;21.50;66.30;;;;;;5006286;28;1561;-67
2023/11/10 07:26:28;;;;;;;;;;;21.50;66.20;;;;;;5003412;28;1914;-67
2023/11/10 07:28:53;;;;;;;;;;;21.50;66.20;;;;;;5005455;28;1477;-67
2023/11/10 07:31:19;;;;;;;;;;;21.50;66.20;;;;;;5003424;28;1339;-66
2023/11/10 07:33:44;;;;;;;;;;;21.50;66.20;;;;;;5001965;28;919;-66
2023/11/10 07:36:10;;;;;;;;;;;21.50;66.20;;;;;;5003817;28;1367;-67
2023/11/10 07:38:36;;;;;;;;;;;21.60;66.20;;;;;;4994137;28;4109;-67
2023/11/10 07:41:03;;;;;;;;;;;21.50;66.10;;;;;;4992316;28;4983;-67
2023/11/10 07:43:29;;;;;;;;;;;21.60;66.20;;;;;;5000712;28;3059;-67
2023/11/10 07:45:54;;;;;;;;;;;21.60;66.00;;;;;;4990789;28;4658;-67
2023/11/10 07:48:20;;;;;;;;;;;21.60;65.80;;;;;;4999931;28;4260;-67
2023/11/10 07:50:45;;;;;;;;;;;21.60;65.70;;;;;;4999635;28;4497;-68
2023/11/10 07:53:12;;;;;;;;;;;21.60;65.70;;;;;;5001804;28;4138;-67
2023/11/10 07:55:38;;;;;;;;;;;21.60;66.50;;;;;;5002393;28;1239;-66
2023/11/10 07:58:05;;;;;;;;;;;21.60;65.80;;;;;;5005839;28;1258;-66
2023/11/10 08:00:30;;;;;;;;;;;21.60;65.80;;;;;;5006069;28;1452;-68
2023/11/10 08:02:56;;;;;;;;;;;21.60;65.80;;;;;;4999235;28;1701;-68
2023/11/10 08:05:22;;;;;;;;;;;21.60;65.80;;;;;;5006710;28;1519;-68
2023/11/10 08:07:48;;;;;;;;;;;21.60;65.80;;;;;;4999133;28;1965;-68
2023/11/10 08:10:16;;;;;;;;;;;21.60;65.80;;;;;;5005950;28;1025;-68
2023/11/10 08:12:42;;;;;;;;;;;21.60;65.80;;;;;;5017693;28;1466;-68
2023/11/10 08:15:09;;;;;;;;;;;21.60;65.80;;;;;;5015160;28;1399;-68
2023/11/10 08:17:34;;;;;;;;;;;21.60;65.80;;;;;;5007351;28;1503;-68
2023/11/10 08:20:00;;;;;;;;;;;21.60;65.80;;;;;;5018640;28;1422;-68
2023/11/10 08:22:26;;;;;;;;;;;21.60;65.80;;;;;;5004850;28;1284;-68
2023/11/10 08:24:53;;;;;;;;;;;21.60;65.90;;;;;;5000924;28;1555;-67
2023/11/10 08:27:19;;;;;;;;;;;21.60;65.80;;;;;;5001304;28;1902;-68
2023/11/10 08:29:45;;;;;;;;;;;21.60;65.90;;;;;;5001142;28;1416;-67
2023/11/10 08:32:10;;;;;;;;;;;21.60;65.80;;;;;;5001856;28;1368;-68
2023/11/10 08:34:36;;;;;;;;;;;21.60;65.80;;;;;;5002645;28;1458;-68
2023/11/10 08:37:01;;;;;;;;;;;21.60;65.80;;;;;;4999459;28;1318;-68
2023/11/10 08:39:27;;;;;;;;;;;21.60;65.80;;;;;;5015853;28;1600;-68
2023/11/10 08:41:52;;;;;;;;;;;21.60;65.70;;;;;;5000542;28;1716;-68
2023/11/10 08:44:18;;;;;;;;;;;21.60;65.70;;;;;;5002135;28;1426;-68
2023/11/10 08:46:44;;;;;;;;;;;21.60;65.60;;;;;;5000495;28;1898;-67
2023/11/10 08:49:13;;;;;;;;;;;21.60;65.60;;;;;;5015719;28;1362;-67
2023/11/10 08:51:39;;;;;;;;;;;21.60;65.60;;;;;;5001654;28;1317;-67
2023/11/10 08:54:05;;;;;;;;;;;21.60;65.60;;;;;;5005483;28;1365;-67
2023/11/10 08:56:30;;;;;;;;;;;21.60;65.60;;;;;;4998891;28;1419;-68
2023/11/10 08:58:56;;;;;;;;;;;21.60;65.60;;;;;;5017470;28;1131;-68
2023/11/10 09:01:22;;;;;;;;;;;21.60;65.50;;;;;;5003375;28;1633;-68
2023/11/10 09:03:48;;;;;;;;;;;21.70;65.60;;;;;;5001183;28;1506;-68
2023/11/10 09:06:13;;;;;;;;;;;21.60;65.50;;;;;;5000613;28;2180;-68
2023/11/10 09:08:41;;;;;;;;;;;21.60;65.50;;;;;;4998367;28;2122;-68
2023/11/10 09:11:06;;;;;;;;;;;21.60;65.50;;;;;;5003209;28;1285;-68
2023/11/10 09:13:32;;;;;;;;;;;21.60;65.50;;;;;;4997590;28;1215;-68
2023/11/10 09:15:58;;;;;;;;;;;21.60;65.40;;;;;;4999495;28;1286;-68
2023/11/10 09:18:23;;;;;;;;;;;21.70;65.50;;;;;;5003135;28;2283;-68
2023/11/10 09:20:49;;;;;;;;;;;21.60;65.50;;;;;;4994360;28;4070;-68
2023/11/10 09:23:14;;;;;;;;;;;21.60;65.50;;;;;;5004115;28;1343;-68
2023/11/10 09:25:40;;;;;;;;;;;21.60;65.50;;;;;;5002118;28;1332;-68
2023/11/10 09:28:06;;;;;;;;;;;21.60;65.50;;;;;;5002229;28;1963;-68
2023/11/10 09:30:33;;;;;;;;;;;21.60;65.50;;;;;;5000729;28;1507;-68
2023/11/10 09:32:59;;;;;;;;;;;21.60;65.50;;;;;;5000030;28;1386;-68
2023/11/10 09:35:26;;;;;;;;;;;21.60;65.50;;;;;;4999287;28;1258;-68
2023/11/10 09:37:51;;;;;;;;;;;21.60;65.60;;;;;;5001686;28;1422;-68
2023/11/10 09:40:19;;;;;;;;;;;21.70;65.70;;;;;;5004362;28;1292;-68
2023/11/10 09:42:45;;;;;;;;;;;21.60;65.70;;;;;;5001718;28;1375;-68
2023/11/10 09:45:12;;;;;;;;;;;21.60;65.70;;;;;;5006029;28;1326;-68
2023/11/10 09:47:40;;;;;;;;;;;21.60;65.60;;;;;;5004513;28;1973;-68
2023/11/10 09:50:08;;;;;;;;;;;21.60;65.70;;;;;;5004356;28;1632;-68
2023/11/10 09:52:34;;;;;;;;;;;21.60;65.70;;;;;;4999063;28;1481;-68
2023/11/10 09:54:59;;;;;;;;;;;21.50;65.70;;;;;;4998701;28;1390;-67
2023/11/10 09:57:25;;;;;;;;;;;21.50;65.70;;;;;;5002251;28;1331;-67
2023/11/10 09:59:51;;;;;;;;;;;21.60;65.90;;;;;;5001557;28;1724;-68
2023/11/10 10:02:17;;;;;;;;;;;21.50;65.80;;;;;;5003736;28;1494;-68
2023/11/10 10:04:43;;;;;;;;;;;21.50;65.90;;;;;;5001490;28;1501;-68
2023/11/10 10:07:09;;;;;;;;;;;21.50;65.90;;;;;;5002342;28;2003;-68
2023/11/10 10:09:35;;;;;;;;;;;21.50;65.90;;;;;;5006827;28;1514;-68
2023/11/10 10:12:00;;;;;;;;;;;21.50;66.00;;;;;;5006043;28;1522;-68
2023/11/10 10:14:28;;;;;;;;;;;21.50;66.00;;;;;;5006594;28;1099;-68
2023/11/10 10:16:54;;;;;;;;;;;21.50;66.00;;;;;;5003431;28;1222;-68
2023/11/10 10:19:23;;;;;;;;;;;21.50;66.10;;;;;;5008416;28;1200;-68
2023/11/10 10:21:49;;;;;;;;;;;21.50;66.10;;;;;;5003942;28;1261;-68
2023/11/10 10:24:14;;;;;;;;;;;21.50;66.10;;;;;;5008850;28;1276;-68
2023/11/10 10:26:40;;;;;;;;;;;21.40;66.10;;;;;;5003327;28;1930;-68
2023/11/10 10:29:05;;;;;;;;;;;21.40;66.10;;;;;;5024414;28;1329;-68
2023/11/10 10:31:31;;;;;;;;;;;21.40;66.20;;;;;;5008343;28;1343;-68
2023/11/10 10:34:01;;;;;;;;;;;21.40;66.20;;;;;;5009316;28;1385;-68
2023/11/10 10:36:26;;;;;;;;;;;21.40;66.20;;;;;;5004804;28;1700;-68
2023/11/10 10:38:55;;;;;;;;;;;21.40;66.20;;;;;;5004269;28;1481;-68
2023/11/10 10:41:20;;;;;;;;;;;21.40;66.30;;;;;;5002955;28;1890;-68
2023/11/10 10:43:47;;;;;;;;;;;21.40;66.30;;;;;;5005552;28;1587;-68
2023/11/10 10:46:12;;;;;;;;;;;21.40;67.10;;;;;;4991450;28;1263;-68
2023/11/10 10:48:38;;;;;;;;;;;21.40;66.40;;;;;;5003365;28;1906;-68
2023/11/10 10:51:04;;;;;;;;;;;21.30;66.30;;;;;;5004770;28;1449;-68
2023/11/10 10:53:30;;;;;;;;;;;21.30;66.40;;;;;;5004007;28;1515;-68
2023/11/10 10:55:57;;;;;;;;;;;21.30;66.40;;;;;;5005093;28;1490;-68
2023/11/10 10:58:22;;;;;;;;;;;21.30;66.40;;;;;;5001938;28;1489;-68
2023/11/10 11:00:48;;;;;;;;;;;21.30;66.40;;;;;;5007075;28;1302;-68
2023/11/10 11:03:34;;;;;;;;;;;21.30;66.50;;;;;;5004429;28;1372;-68
2023/11/10 11:06:06;;;;;;;;;;;21.30;66.50;;;;;;5005712;28;1663;-68
2023/11/10 11:08:50;;;;;;;;;;;21.30;66.50;;;;;;5002078;28;1903;-68
2023/11/10 11:11:27;;;;;;;;;;;21.30;66.50;;;;;;5006069;28;1406;-68
2023/11/10 11:14:00;;;;;;;;;;;21.30;66.60;;;;;;5000588;28;1481;-68
2023/11/10 11:16:30;;;;;;;;;;;21.30;66.60;;;;;;5003199;28;1562;-68
2023/11/10 11:19:01;;;;;;;;;;;21.30;66.60;;;;;;5007845;28;1859;-68
2023/11/10 11:21:26;;;;;;;;;;;21.30;66.70;;;;;;5004272;28;1308;-68
2023/11/10 11:23:52;;;;;;;;;;;21.30;66.70;;;;;;5005755;28;1273;-68
2023/11/10 11:26:19;;;;;;;;;;;21.20;66.60;;;;;;4998951;28;1337;-68
2023/11/10 11:28:44;;;;;;;;;;;21.20;66.70;;;;;;5004480;28;1970;-68
2023/11/10 11:31:11;;;;;;;;;;;21.20;66.70;;;;;;5002578;28;1425;-68
2023/11/10 11:33:49;;;;;;;;;;;21.30;66.70;;;;;;5005387;28;1357;-68
2023/11/10 11:36:15;;;;;;;;;;;21.30;66.60;;;;;;5018924;28;954;-68
2023/11/10 11:38:42;;;;;;;;;;;21.30;66.50;;;;;;5000778;28;1523;-67
2023/11/10 11:41:07;;;;;;;;;;;21.30;66.40;;;;;;5002717;28;1869;-68
2023/11/10 11:43:33;;;;;;;;;;;21.40;66.40;;;;;;5008453;28;1386;-68
2023/11/10 11:45:58;;;;;;;;;;;21.50;66.30;;;;;;5001689;28;1428;-68
2023/11/10 11:48:24;;;;;;;;;;;21.50;66.10;;;;;;5003321;28;1898;-68
2023/11/10 11:50:52;;;;;;;;;;;21.60;66.10;;;;;;5004804;28;1463;-68
2023/11/10 11:53:26;;;;;;;;;;;21.70;65.80;;;;;;5016210;28;1419;-68
2023/11/10 11:55:52;;;;;;;;;;;21.80;65.70;;;;;;5002198;28;1304;-68
2023/11/10 11:58:18;;;;;;;;;;;21.80;66.20;;;;;;4988261;28;1763;-68
2023/11/10 12:00:44;;;;;;;;;;;21.90;65.30;;;;;;5003255;28;1505;-68
2023/11/10 12:03:09;;;;;;;;;;;22.00;65.10;;;;;;5015898;28;1270;-68
2023/11/10 12:05:35;;;;;;;;;;;22.00;64.80;;;;;;5002111;28;978;-68
2023/11/10 12:08:01;;;;;;;;;;;22.20;64.70;;;;;;4998362;28;1902;-68
2023/11/10 12:10:26;;;;;;;;;;;22.20;64.50;;;;;;5000305;28;1177;-68
2023/11/10 12:12:53;;;;;;;;;;;22.30;64.30;;;;;;5001077;28;1579;-68
2023/11/10 12:15:18;;;;;;;;;;;22.30;64.10;;;;;;4999135;28;1444;-68
2023/11/10 12:17:44;;;;;;;;;;;22.30;64.00;;;;;;5000673;28;1354;-68
2023/11/10 12:20:10;;;;;;;;;;;22.40;63.80;;;;;;5000367;28;1437;-68
2023/11/10 12:22:35;;;;;;;;;;;22.40;63.60;;;;;;5001040;28;2441;-68
2023/11/10 12:25:02;;;;;;;;;;;22.50;63.60;;;;;;5002114;28;1239;-68
2023/11/10 12:27:28;;;;;;;;;;;22.50;63.40;;;;;;4999635;28;2193;-68
2023/11/10 12:29:53;;;;;;;;;;;22.50;63.30;;;;;;4998477;28;1177;-69
2023/11/10 12:32:18;;;;;;;;;;;22.60;63.20;;;;;;5002251;28;1332;-68
2023/11/10 12:34:45;;;;;;;;;;;22.60;63.10;;;;;;4997003;28;1421;-68
2023/11/10 12:37:14;;;;;;;;;;;22.60;63.00;;;;;;4998785;28;1380;-68
2023/11/10 12:39:42;;;;;;;;;;;22.60;63.00;;;;;;5002580;28;1550;-68
2023/11/10 12:42:07;;;;;;;;;;;22.60;62.90;;;;;;5012915;28;1458;-68
2023/11/10 12:44:33;;;;;;;;;;;22.70;62.90;;;;;;5001400;28;1382;-68
2023/11/10 12:47:00;;;;;;;;;;;22.70;62.80;;;;;;4997209;28;1894;-68
2023/11/10 12:49:29;;;;;;;;;;;22.70;62.70;;;;;;5000047;28;1343;-68
2023/11/10 12:51:56;;;;;;;;;;;22.70;62.70;;;;;;4997827;28;1205;-69
2023/11/10 12:54:23;;;;;;;;;;;22.70;62.70;;;;;;5000855;28;1258;-68
2023/11/10 12:56:48;;;;;;;;;;;22.70;62.60;;;;;;4999605;28;1074;-69
2023/11/10 12:59:14;;;;;;;;;;;22.70;62.60;;;;;;5001168;28;1713;-68
2023/11/10 13:01:42;;;;;;;;;;;22.70;62.60;;;;;;4998368;28;1328;-68
2023/11/10 13:04:08;;;;;;;;;;;22.70;62.60;;;;;;4999027;28;1927;-68
2023/11/10 13:06:33;;;;;;;;;;;22.70;62.50;;;;;;5005966;28;1910;-68
2023/11/10 13:08:59;;;;;;;;;;;22.70;62.60;;;;;;5006585;28;888;-69
2023/11/10 13:11:24;;;;;;;;;;;22.70;62.60;;;;;;5004398;28;1498;-68
2023/11/10 13:13:50;;;;;;;;;;;22.70;62.70;;;;;;4999005;28;1340;-68
2023/11/10 13:16:15;;;;;;;;;;;22.70;62.70;;;;;;4999861;28;1649;-68
2023/11/10 13:18:41;;;;;;;;;;;22.60;62.70;;;;;;5017505;28;1258;-68
2023/11/10 13:21:07;;;;;;;;;;;22.60;62.80;;;;;;5002169;28;1507;-68
2023/11/10 13:23:34;;;;;;;;;;;22.60;62.80;;;;;;5000202;28;1232;-68
2023/11/10 13:26:01;;;;;;;;;;;22.60;63.00;;;;;;5001302;28;1294;-68
2023/11/10 13:28:26;;;;;;;;;;;22.60;63.00;;;;;;5000817;28;1963;-68
2023/11/10 13:30:53;;;;;;;;;;;22.50;63.00;;;;;;5000357;28;1568;-68
2023/11/10 13:33:18;;;;;;;;;;;22.50;63.10;;;;;;5000743;28;1441;-68
2023/11/10 13:35:45;;;;;;;;;;;22.50;63.20;;;;;;5002288;28;1332;-68
2023/11/10 13:38:11;;;;;;;;;;;22.50;63.30;;;;;;4995896;28;1455;-69
2023/11/10 13:40:38;;;;;;;;;;;22.40;63.30;;;;;;4995134;28;2722;-68
2023/11/10 13:43:03;;;;;;;;;;;22.40;63.40;;;;;;5001098;28;1348;-68
2023/11/10 13:45:29;;;;;;;;;;;22.40;63.50;;;;;;4984580;28;1269;-68
2023/11/10 13:47:56;;;;;;;;;;;22.40;63.60;;;;;;5002443;28;1902;-69
2023/11/10 13:50:21;;;;;;;;;;;22.40;63.70;;;;;;5003681;28;1541;-69
2023/11/10 13:52:47;;;;;;;;;;;22.30;63.70;;;;;;5004059;28;2013;-68
2023/11/10 13:55:13;;;;;;;;;;;22.30;63.80;;;;;;4998545;28;1323;-68
2023/11/10 13:57:38;;;;;;;;;;;22.30;63.90;;;;;;5002047;28;1154;-68
2023/11/10 14:00:11;;;;;;;;;;;22.30;63.90;;;;;;5003721;28;1138;-69
2023/11/10 14:02:37;;;;;;;;;;;22.30;64.00;;;;;;5005288;28;1432;-69
2023/11/10 14:05:04;;;;;;;;;;;22.20;64.00;;;;;;5008946;28;1408;-68
2023/11/10 14:07:30;;;;;;;;;;;22.20;64.00;;;;;;5003366;28;2002;-69
2023/11/10 14:09:56;;;;;;;;;;;22.20;64.10;;;;;;5004519;28;1375;-69
2023/11/10 14:12:21;;;;;;;;;;;22.20;64.10;;;;;;5002643;28;1545;-68
2023/11/10 14:14:48;;;;;;;;;;;22.20;64.20;;;;;;5002249;28;1312;-69
2023/11/10 14:17:13;;;;;;;;;;;22.20;64.20;;;;;;5005070;28;1395;-68
2023/11/10 14:19:43;;;;;;;;;;;22.20;64.30;;;;;;5006641;28;1325;-68
2023/11/10 14:22:09;;;;;;;;;;;22.20;64.40;;;;;;5004856;28;1264;-69
2023/11/10 14:24:34;;;;;;;;;;;22.10;64.40;;;;;;5000692;28;1450;-69